Gorum, Louisiana
Current Conditions -  °F | °C
As of 1:56 PM on Sunday 23 Nov 2014 (Local Time) from KAQV Reporting Station
Scattered Clouds Scattered Clouds  
Wind Chill: 72°   Ceiling: Unl
Heat Index: 72°   Visibility: 10mi
Dew Point: 60°   Wind: 10mph
Humidity: 66%   Direction: 190°S
Pressure: 29.49"   Gusts: 17mph
Location:  31.43°N, 92.94°W
Report Text: KAQV 231956Z AUTO 19009G15KT 160V280 10SM SCT027 22/16 A2949 RMK AO2 SLP985 T02220156 PNO $
Loading
Personal Weather Stations






























Interactive Weather Map New forecast layout! Learn more

10-Day Weather Forecast

Advertisements
Track Severe Weather on mobile